Time;durP1;ratioP1;P1;durP2;ratioP2;P2;SDS_P1;SDS_P2;PMS_P1;PMS_P2;Temp;Humidity;BMP_temperature;BMP_pressure;BME280_temperature;BME280_humidity;BME280_pressure;Samples;Min_cycle;Max_cycle;Signal;HPM_P1;HPM_P2
2022/04/06 00:00:21;;;;;;;;;3.00;3.00;;;;;;;;5096374;27;45524;-69
2022/04/06 00:02:46;;;;;;;;;2.00;2.00;;;;;;;;5080624;27;45377;-69
2022/04/06 00:05:12;;;;;;;;;1.50;1.50;;;;;;;;5095053;27;46719;-69
2022/04/06 00:07:38;;;;;;;;;1.00;1.00;;;;;;;;5096371;27;45355;-69
2022/04/06 00:10:04;;;;;;;;;1.50;1.50;;;;;;;;5088241;27;45399;-69
2022/04/06 00:12:29;;;;;;;;;2.00;2.00;;;;;;;;5099484;27;45536;-69
2022/04/06 00:14:54;;;;;;;;;2.00;2.00;;;;;;;;5078966;27;48255;-69
2022/04/06 00:17:19;;;;;;;;;2.00;2.00;;;;;;;;5078991;27;45812;-68
2022/04/06 00:19:44;;;;;;;;;2.25;2.00;;;;;;;;5095466;27;45512;-69
2022/04/06 00:22:10;;;;;;;;;3.50;3.50;;;;;;;;5093270;27;45355;-69
2022/04/06 00:24:35;;;;;;;;;3.75;2.75;;;;;;;;5097249;27;46488;-69
2022/04/06 00:27:00;;;;;;;;;2.00;2.00;;;;;;;;5096099;27;45582;-69
2022/04/06 00:29:25;;;;;;;;;1.50;1.50;;;;;;;;5096112;27;45599;-69
2022/04/06 00:31:50;;;;;;;;;1.25;1.25;;;;;;;;5096481;27;45398;-69
2022/04/06 00:34:16;;;;;;;;;2.00;2.00;;;;;;;;5094478;27;47315;-68
2022/04/06 00:36:41;;;;;;;;;3.00;2.25;;;;;;;;5098975;27;45437;-69
2022/04/06 00:39:06;;;;;;;;;2.25;2.25;;;;;;;;5078884;27;45441;-69
2022/04/06 00:41:31;;;;;;;;;2.00;2.00;;;;;;;;5097061;27;45447;-69
2022/04/06 00:44:16;;;;;;;;;1.00;1.00;;;;;;;;5101432;27;45435;-69
2022/04/06 00:46:43;;;;;;;;;2.25;2.25;;;;;;;;5079365;27;45460;-69
2022/04/06 00:49:11;;;;;;;;;1.50;1.00;;;;;;;;5095716;27;45426;-68
2022/04/06 00:51:37;;;;;;;;;4.50;1.00;;;;;;;;5093647;27;45355;-68
2022/04/06 00:54:02;;;;;;;;;1.25;1.00;;;;;;;;5096580;27;46368;-69
2022/04/06 00:56:27;;;;;;;;;2.00;2.00;;;;;;;;5090237;27;45359;-69
2022/04/06 00:58:53;;;;;;;;;2.00;2.00;;;;;;;;5096415;27;45441;-69
2022/04/06 01:01:18;;;;;;;;;1.00;1.00;;;;;;;;5081361;27;45358;-69
2022/04/06 01:03:43;;;;;;;;;1.00;1.00;;;;;;;;5098503;27;45487;-69
2022/04/06 01:06:09;;;;;;;;;2.00;2.00;;;;;;;;5096133;27;45344;-69
2022/04/06 01:08:34;;;;;;;;;3.00;1.50;;;;;;;;5093606;27;45311;-69
2022/04/06 01:10:59;;;;;;;;;1.00;1.00;;;;;;;;5096428;27;45381;-68
2022/04/06 01:13:25;;;;;;;;;1.00;1.00;;;;;;;;5096827;27;45387;-69
2022/04/06 01:15:50;;;;;;;;;2.00;2.00;;;;;;;;5097583;27;45310;-69
2022/04/06 01:18:15;;;;;;;;;1.00;1.00;;;;;;;;5078504;27;45484;-70
2022/04/06 01:20:40;;;;;;;;;1.25;1.25;;;;;;;;5094367;27;45299;-69
2022/04/06 01:23:06;;;;;;;;;1.50;1.50;;;;;;;;5095681;27;45351;-69
2022/04/06 01:25:31;;;;;;;;;2.00;2.00;;;;;;;;5096286;27;45482;-69
2022/04/06 01:27:57;;;;;;;;;1.50;1.50;;;;;;;;5092246;27;45325;-69
2022/04/06 01:30:22;;;;;;;;;2.25;2.00;;;;;;;;5097905;27;45522;-69
2022/04/06 01:32:47;;;;;;;;;2.25;2.00;;;;;;;;5093316;27;46634;-69
2022/04/06 01:35:12;;;;;;;;;2.00;2.00;;;;;;;;5095865;27;45330;-69
2022/04/06 01:37:37;;;;;;;;;1.00;1.00;;;;;;;;5094951;27;45287;-69
2022/04/06 01:40:04;;;;;;;;;3.50;2.50;;;;;;;;5096263;27;45267;-69
2022/04/06 01:42:30;;;;;;;;;2.00;1.75;;;;;;;;5097486;27;46445;-69
2022/04/06 01:44:55;;;;;;;;;2.00;2.00;;;;;;;;5096373;27;45414;-69
2022/04/06 01:47:21;;;;;;;;;2.00;2.00;;;;;;;;5095733;27;45464;-69
2022/04/06 01:52:30;;;;;;;;;1.00;1.00;;;;;;;;5081267;27;45347;-69
2022/04/06 01:55:00;;;;;;;;;1.00;1.00;;;;;;;;5090003;27;45370;-69
2022/04/06 01:57:26;;;;;;;;;1.50;1.50;;;;;;;;5095812;27;45378;-69
2022/04/06 01:59:51;;;;;;;;;2.25;2.00;;;;;;;;5095036;27;45572;-69
2022/04/06 02:02:18;;;;;;;;;2.00;2.00;;;;;;;;5092710;27;45492;-69
2022/04/06 02:04:44;;;;;;;;;1.00;1.00;;;;;;;;5096016;27;45446;-69
2022/04/06 02:07:10;;;;;;;;;1.00;1.00;;;;;;;;5094230;27;45431;-68
2022/04/06 02:09:36;;;;;;;;;2.75;2.00;;;;;;;;5097728;27;45324;-69
2022/04/06 02:12:01;;;;;;;;;2.00;1.00;;;;;;;;5093870;27;45457;-69
2022/04/06 02:14:28;;;;;;;;;2.00;2.00;;;;;;;;5094049;27;45493;-69
2022/04/06 02:16:53;;;;;;;;;3.00;2.00;;;;;;;;5074451;27;45273;-69
2022/04/06 02:19:18;;;;;;;;;2.25;1.00;;;;;;;;5092535;27;45284;-69
2022/04/06 02:21:43;;;;;;;;;1.50;1.50;;;;;;;;5093868;27;45393;-68
2022/04/06 02:24:09;;;;;;;;;1.00;1.00;;;;;;;;5095138;27;45262;-69
2022/04/06 02:26:34;;;;;;;;;1.00;1.00;;;;;;;;5095935;27;45197;-68
2022/04/06 02:29:00;;;;;;;;;1.25;1.25;;;;;;;;5090429;27;45441;-69
2022/04/06 02:31:25;;;;;;;;;2.00;2.00;;;;;;;;5094227;27;46268;-69
2022/04/06 02:33:50;;;;;;;;;2.25;1.25;;;;;;;;5096384;27;45343;-69
2022/04/06 02:36:16;;;;;;;;;3.00;2.25;;;;;;;;5097099;27;45307;-68
2022/04/06 02:38:41;;;;;;;;;1.00;1.00;;;;;;;;5093078;27;45439;-69
2022/04/06 02:41:07;;;;;;;;;1.00;1.00;;;;;;;;5095476;27;45558;-69
2022/04/06 02:43:32;;;;;;;;;1.25;1.25;;;;;;;;5089612;27;45477;-69
2022/04/06 02:45:57;;;;;;;;;2.50;1.00;;;;;;;;5095393;27;45263;-69
2022/04/06 02:48:23;;;;;;;;;1.00;1.00;;;;;;;;5094435;27;45253;-69
2022/04/06 02:50:48;;;;;;;;;1.50;1.50;;;;;;;;5092473;27;45431;-69
2022/04/06 02:53:13;;;;;;;;;3.00;1.00;;;;;;;;5094472;27;45268;-69
2022/04/06 02:55:38;;;;;;;;;1.00;1.00;;;;;;;;5095494;27;45453;-69
2022/04/06 02:58:03;;;;;;;;;2.25;2.25;;;;;;;;5095153;27;45228;-69
2022/04/06 03:00:32;;;;;;;;;1.00;1.00;;;;;;;;5096222;27;45547;-69
2022/04/06 03:02:57;;;;;;;;;1.00;1.00;;;;;;;;5092937;27;45412;-69
2022/04/06 03:05:24;;;;;;;;;2.00;2.00;;;;;;;;5092914;27;45346;-69
2022/04/06 03:07:50;;;;;;;;;0.25;0.25;;;;;;;;5092755;27;45584;-70
2022/04/06 03:10:15;;;;;;;;;0.75;0.75;;;;;;;;5093061;27;46163;-69
2022/04/06 03:12:40;;;;;;;;;1.00;1.00;;;;;;;;5095921;27;45484;-68
2022/04/06 03:15:06;;;;;;;;;1.00;1.00;;;;;;;;5094145;27;45647;-69
2022/04/06 03:17:31;;;;;;;;;1.00;1.00;;;;;;;;5092600;27;45422;-69
2022/04/06 03:19:56;;;;;;;;;2.50;1.00;;;;;;;;5092658;27;46593;-69
2022/04/06 03:22:21;;;;;;;;;1.00;0.75;;;;;;;;5094118;27;45440;-69
2022/04/06 03:24:47;;;;;;;;;0.50;0.50;;;;;;;;5096559;27;45393;-69
2022/04/06 03:27:12;;;;;;;;;1.00;0.25;;;;;;;;5092801;27;45414;-69
2022/04/06 03:29:39;;;;;;;;;2.00;2.00;;;;;;;;5093375;27;47539;-69
2022/04/06 03:32:05;;;;;;;;;1.00;1.00;;;;;;;;5092442;27;45418;-69
2022/04/06 03:34:30;;;;;;;;;1.50;1.50;;;;;;;;5092620;27;45793;-69
2022/04/06 03:36:55;;;;;;;;;2.00;1.00;;;;;;;;5095240;27;45426;-69
2022/04/06 03:39:20;;;;;;;;;2.00;2.00;;;;;;;;5095734;27;45424;-69
2022/04/06 03:41:46;;;;;;;;;1.50;1.00;;;;;;;;5091476;27;45398;-69
2022/04/06 03:44:11;;;;;;;;;1.00;1.00;;;;;;;;5093791;27;45284;-69
2022/04/06 03:46:36;;;;;;;;;1.00;1.00;;;;;;;;5092177;27;45466;-69
2022/04/06 03:49:02;;;;;;;;;0.00;0.00;;;;;;;;5093897;27;45476;-69
2022/04/06 03:51:27;;;;;;;;;2.25;1.00;;;;;;;;5095343;27;45380;-69
2022/04/06 03:53:53;;;;;;;;;2.50;1.00;;;;;;;;5094068;27;45475;-69
2022/04/06 03:56:18;;;;;;;;;2.50;1.00;;;;;;;;5095087;27;45467;-69
2022/04/06 03:58:43;;;;;;;;;1.00;0.75;;;;;;;;5091952;27;46171;-69
2022/04/06 04:01:08;;;;;;;;;0.25;0.25;;;;;;;;5092965;27;45260;-69
2022/04/06 04:03:34;;;;;;;;;2.00;1.00;;;;;;;;5094949;27;45224;-69
2022/04/06 04:05:59;;;;;;;;;1.00;1.00;;;;;;;;5093677;27;45363;-69
2022/04/06 04:08:26;;;;;;;;;1.00;1.00;;;;;;;;5092304;27;45614;-69
2022/04/06 04:10:51;;;;;;;;;1.00;1.00;;;;;;;;5092780;27;45520;-68
2022/04/06 04:13:17;;;;;;;;;2.25;1.00;;;;;;;;5092559;27;45307;-69
2022/04/06 04:15:42;;;;;;;;;1.00;1.00;;;;;;;;5095922;27;45280;-69
2022/04/06 04:18:07;;;;;;;;;1.00;1.00;;;;;;;;5091780;27;46746;-69
2022/04/06 04:20:32;;;;;;;;;0.00;0.00;;;;;;;;5091001;27;45466;-69
2022/04/06 04:22:57;;;;;;;;;0.75;0.75;;;;;;;;5093189;27;45455;-68
2022/04/06 04:25:22;;;;;;;;;1.00;1.00;;;;;;;;5093193;27;45285;-69
2022/04/06 04:27:48;;;;;;;;;0.75;0.75;;;;;;;;5087512;27;46313;-69
2022/04/06 04:30:13;;;;;;;;;1.00;1.00;;;;;;;;5093809;27;45521;-69
2022/04/06 04:32:38;;;;;;;;;1.50;0.50;;;;;;;;5093129;27;45335;-69
2022/04/06 04:35:06;;;;;;;;;0.00;0.00;;;;;;;;5094584;27;45427;-69
2022/04/06 04:37:31;;;;;;;;;0.50;0.50;;;;;;;;5092213;27;46729;-69
2022/04/06 04:39:57;;;;;;;;;2.00;2.00;;;;;;;;5094037;27;49902;-69
2022/04/06 04:42:22;;;;;;;;;1.00;1.00;;;;;;;;5095363;27;45391;-69
2022/04/06 04:44:47;;;;;;;;;1.00;1.00;;;;;;;;5097182;27;45511;-69
2022/04/06 04:47:12;;;;;;;;;1.00;0.00;;;;;;;;5079938;27;46261;-69
2022/04/06 04:49:37;;;;;;;;;1.00;1.00;;;;;;;;5097076;27;45480;-68
2022/04/06 04:52:03;;;;;;;;;1.25;1.00;;;;;;;;5096952;27;45674;-69
2022/04/06 04:54:28;;;;;;;;;0.50;0.50;;;;;;;;5098795;27;45381;-69
2022/04/06 04:56:53;;;;;;;;;1.00;1.00;;;;;;;;5096776;27;46570;-69
2022/04/06 04:59:18;;;;;;;;;1.25;0.75;;;;;;;;5096105;27;45548;-69
2022/04/06 05:01:44;;;;;;;;;1.00;1.00;;;;;;;;5095220;27;45373;-68
2022/04/06 05:04:09;;;;;;;;;0.00;0.00;;;;;;;;5096627;27;45385;-69
2022/04/06 05:06:36;;;;;;;;;2.00;0.25;;;;;;;;5098835;27;45432;-69
2022/04/06 05:09:01;;;;;;;;;0.00;0.00;;;;;;;;5094613;27;45384;-68
2022/04/06 05:11:27;;;;;;;;;0.00;0.00;;;;;;;;5094716;27;45323;-69
2022/04/06 05:13:52;;;;;;;;;0.75;0.75;;;;;;;;5096070;27;45438;-69
2022/04/06 05:16:17;;;;;;;;;0.25;0.25;;;;;;;;5095443;27;46567;-69
2022/04/06 05:18:42;;;;;;;;;1.25;1.00;;;;;;;;5098420;27;45496;-69
2022/04/06 05:21:08;;;;;;;;;1.00;1.00;;;;;;;;5094176;27;45329;-68
2022/04/06 05:23:33;;;;;;;;;1.50;1.25;;;;;;;;5095674;27;45418;-69
2022/04/06 05:25:58;;;;;;;;;1.00;1.00;;;;;;;;5095509;27;46635;-68
2022/04/06 05:28:24;;;;;;;;;1.00;1.00;;;;;;;;5091753;27;45436;-69
2022/04/06 05:30:49;;;;;;;;;1.25;0.00;;;;;;;;5098374;27;45316;-69
2022/04/06 05:33:14;;;;;;;;;1.75;1.00;;;;;;;;5095350;27;45589;-69
2022/04/06 05:35:40;;;;;;;;;2.00;1.00;;;;;;;;5093985;27;46343;-69
2022/04/06 05:38:05;;;;;;;;;0.00;0.00;;;;;;;;5094222;27;45455;-69
2022/04/06 05:40:30;;;;;;;;;0.00;0.00;;;;;;;;5094675;27;45418;-69
2022/04/06 05:42:55;;;;;;;;;0.00;0.00;;;;;;;;5097528;27;45355;-69
2022/04/06 05:45:21;;;;;;;;;1.00;1.00;;;;;;;;5095964;27;47002;-68
2022/04/06 05:47:46;;;;;;;;;0.00;0.00;;;;;;;;5095832;27;45407;-69
2022/04/06 05:50:12;;;;;;;;;1.00;0.00;;;;;;;;5095950;27;45523;-69
2022/04/06 05:52:37;;;;;;;;;0.50;0.50;;;;;;;;5095533;27;45458;-69
2022/04/06 05:55:03;;;;;;;;;0.25;0.25;;;;;;;;5080947;27;46180;-69
2022/04/06 05:57:28;;;;;;;;;1.50;0.00;;;;;;;;5096825;27;45318;-69
2022/04/06 05:59:54;;;;;;;;;0.75;0.75;;;;;;;;5093152;27;45477;-69
2022/04/06 06:02:19;;;;;;;;;2.00;0.00;;;;;;;;5088310;27;45449;-69
2022/04/06 06:04:44;;;;;;;;;0.00;0.00;;;;;;;;5095638;27;46517;-69
2022/04/06 06:07:10;;;;;;;;;1.75;0.75;;;;;;;;5095141;27;45385;-69
2022/04/06 06:09:36;;;;;;;;;1.50;1.00;;;;;;;;5097952;27;45483;-69
2022/04/06 06:12:01;;;;;;;;;0.00;0.00;;;;;;;;5093832;27;45416;-69
2022/04/06 06:14:27;;;;;;;;;0.00;0.00;;;;;;;;5093441;27;45403;-69
2022/04/06 06:16:52;;;;;;;;;0.25;0.00;;;;;;;;5095335;27;45296;-69
2022/04/06 06:19:18;;;;;;;;;1.00;1.00;;;;;;;;5095867;27;45218;-69
2022/04/06 06:21:43;;;;;;;;;0.00;0.00;;;;;;;;5096946;27;45418;-69
2022/04/06 06:24:08;;;;;;;;;0.25;0.25;;;;;;;;5093510;27;45866;-69
2022/04/06 06:26:34;;;;;;;;;1.00;1.00;;;;;;;;5094895;27;45564;-69
2022/04/06 06:29:00;;;;;;;;;0.25;0.25;;;;;;;;5093134;27;45436;-69
2022/04/06 06:31:25;;;;;;;;;2.00;1.00;;;;;;;;5095339;27;45425;-69
2022/04/06 06:33:51;;;;;;;;;1.00;0.00;;;;;;;;5095857;27;45442;-69
2022/04/06 06:36:16;;;;;;;;;1.00;1.00;;;;;;;;5096642;27;45414;-69
2022/04/06 06:38:41;;;;;;;;;0.00;0.00;;;;;;;;5094111;27;45823;-68
2022/04/06 06:41:07;;;;;;;;;0.00;0.00;;;;;;;;5093572;27;45496;-69
2022/04/06 06:43:32;;;;;;;;;1.00;1.00;;;;;;;;5092530;27;47023;-69
2022/04/06 06:45:57;;;;;;;;;1.25;1.25;;;;;;;;5095928;27;45382;-68
2022/04/06 06:48:22;;;;;;;;;1.00;1.00;;;;;;;;5094518;27;45420;-69
2022/04/06 06:50:47;;;;;;;;;1.50;0.00;;;;;;;;5093085;27;45470;-69
2022/04/06 06:53:13;;;;;;;;;1.50;0.00;;;;;;;;5094484;27;46457;-69
2022/04/06 06:55:38;;;;;;;;;3.00;0.00;;;;;;;;5093720;27;45497;-69
2022/04/06 06:58:03;;;;;;;;;1.00;1.00;;;;;;;;5081557;27;45437;-69
2022/04/06 07:00:28;;;;;;;;;0.00;0.00;;;;;;;;5096976;27;45469;-69
2022/04/06 07:02:55;;;;;;;;;0.00;0.00;;;;;;;;5095005;27;48770;-69
2022/04/06 07:05:20;;;;;;;;;1.00;0.00;;;;;;;;5092352;27;45394;-68
2022/04/06 07:07:48;;;;;;;;;0.00;0.00;;;;;;;;5092418;27;45390;-69
2022/04/06 07:10:14;;;;;;;;;0.00;0.00;;;;;;;;5093950;27;45356;-69
2022/04/06 07:12:39;;;;;;;;;1.00;1.00;;;;;;;;5095972;27;46330;-69
2022/04/06 07:15:04;;;;;;;;;0.00;0.00;;;;;;;;5093830;27;45647;-69
2022/04/06 07:17:29;;;;;;;;;0.50;0.50;;;;;;;;5095519;27;45378;-69
2022/04/06 07:19:55;;;;;;;;;0.00;0.00;;;;;;;;5092415;27;45538;-69
2022/04/06 07:22:20;;;;;;;;;0.00;0.00;;;;;;;;5094471;27;45366;-68
2022/04/06 07:24:45;;;;;;;;;0.50;0.50;;;;;;;;5096594;27;45453;-69
2022/04/06 07:27:10;;;;;;;;;0.00;0.00;;;;;;;;5092225;27;45331;-69
2022/04/06 07:29:35;;;;;;;;;0.00;0.00;;;;;;;;5077291;27;45412;-69
2022/04/06 07:32:01;;;;;;;;;0.00;0.00;;;;;;;;5093968;27;45610;-69
2022/04/06 07:34:26;;;;;;;;;1.00;1.00;;;;;;;;5094236;27;45314;-69
2022/04/06 07:36:51;;;;;;;;;0.00;0.00;;;;;;;;5095861;27;45441;-68
2022/04/06 07:39:16;;;;;;;;;0.50;0.50;;;;;;;;5095120;27;45331;-69
2022/04/06 07:41:41;;;;;;;;;1.00;1.00;;;;;;;;5092645;27;45457;-70
2022/04/06 07:44:07;;;;;;;;;1.00;0.00;;;;;;;;5094036;27;45372;-68
2022/04/06 07:46:33;;;;;;;;;1.00;0.00;;;;;;;;5092004;27;45332;-68
2022/04/06 07:48:58;;;;;;;;;2.00;0.50;;;;;;;;5094761;27;45430;-69
2022/04/06 07:51:23;;;;;;;;;0.00;0.00;;;;;;;;5094964;27;46368;-69
2022/04/06 07:53:48;;;;;;;;;1.50;0.00;;;;;;;;5093787;27;45283;-69
2022/04/06 07:56:14;;;;;;;;;1.00;1.00;;;;;;;;5094960;27;45408;-69
2022/04/06 07:58:39;;;;;;;;;2.00;1.00;;;;;;;;5092498;27;45586;-69
2022/04/06 08:01:07;;;;;;;;;1.00;1.00;;;;;;;;5094443;27;46214;-69
2022/04/06 08:03:33;;;;;;;;;0.00;0.00;;;;;;;;5095724;27;45291;-69
2022/04/06 08:05:58;;;;;;;;;1.00;1.00;;;;;;;;5092263;27;48473;-68
2022/04/06 08:08:23;;;;;;;;;0.00;0.00;;;;;;;;5093781;27;45474;-69
2022/04/06 08:10:48;;;;;;;;;0.50;0.00;;;;;;;;5093689;27;45395;-69
2022/04/06 08:13:14;;;;;;;;;0.00;0.00;;;;;;;;5092094;27;45291;-69
2022/04/06 08:15:39;;;;;;;;;0.00;0.00;;;;;;;;5094893;27;45424;-69
2022/04/06 08:18:06;;;;;;;;;0.00;0.00;;;;;;;;5095130;27;45484;-69
2022/04/06 08:20:31;;;;;;;;;2.75;1.00;;;;;;;;5095212;27;45673;-69
2022/04/06 08:22:56;;;;;;;;;0.75;0.75;;;;;;;;5096744;27;45632;-69
2022/04/06 08:25:22;;;;;;;;;0.25;0.25;;;;;;;;5097695;27;45323;-69
2022/04/06 08:27:47;;;;;;;;;0.00;0.00;;;;;;;;5099687;27;45523;-69
2022/04/06 08:30:13;;;;;;;;;0.00;0.00;;;;;;;;5095859;27;45600;-69
2022/04/06 08:32:38;;;;;;;;;2.00;0.00;;;;;;;;5096357;27;45450;-69
2022/04/06 08:35:04;;;;;;;;;0.00;0.00;;;;;;;;5097136;27;45484;-69
2022/04/06 08:37:30;;;;;;;;;0.00;0.00;;;;;;;;5096811;27;45433;-68
2022/04/06 08:39:56;;;;;;;;;0.00;0.00;;;;;;;;5097896;27;46015;-69
2022/04/06 08:42:21;;;;;;;;;0.00;0.00;;;;;;;;5096118;27;45359;-68
2022/04/06 08:44:46;;;;;;;;;0.00;0.00;;;;;;;;5097191;27;45564;-68
2022/04/06 08:47:12;;;;;;;;;0.00;0.00;;;;;;;;5095215;27;48479;-68
2022/04/06 08:49:40;;;;;;;;;0.00;0.00;;;;;;;;5096429;27;45346;-69
2022/04/06 08:52:06;;;;;;;;;0.00;0.00;;;;;;;;5096546;27;45397;-68
2022/04/06 08:54:32;;;;;;;;;0.75;0.75;;;;;;;;5098884;27;45372;-68
2022/04/06 08:56:57;;;;;;;;;0.75;0.75;;;;;;;;5097650;27;45457;-68
2022/04/06 08:59:22;;;;;;;;;2.50;0.00;;;;;;;;5096085;27;46211;-68
2022/04/06 09:01:48;;;;;;;;;0.25;0.00;;;;;;;;5091770;27;45393;-68
2022/04/06 09:04:13;;;;;;;;;0.00;0.00;;;;;;;;5096660;27;45710;-68
2022/04/06 09:06:42;;;;;;;;;2.00;0.50;;;;;;;;5098979;27;45298;-68
2022/04/06 09:09:08;;;;;;;;;0.00;0.00;;;;;;;;5094253;27;46196;-68
2022/04/06 09:11:43;;;;;;;;;0.00;0.00;;;;;;;;5093791;27;45569;-69
2022/04/06 09:14:09;;;;;;;;;0.00;0.00;;;;;;;;5094718;27;45390;-69
2022/04/06 09:16:34;;;;;;;;;0.00;0.00;;;;;;;;5094076;27;45544;-69
2022/04/06 09:19:06;;;;;;;;;0.00;0.00;;;;;;;;5097493;27;46417;-68
2022/04/06 09:21:34;;;;;;;;;1.00;0.00;;;;;;;;5096223;27;45468;-68
2022/04/06 09:23:59;;;;;;;;;0.75;0.75;;;;;;;;5096083;27;45406;-68
2022/04/06 09:26:25;;;;;;;;;0.00;0.00;;;;;;;;5094232;27;45462;-69
2022/04/06 09:28:50;;;;;;;;;1.00;1.00;;;;;;;;5082178;27;45409;-68
2022/04/06 09:31:16;;;;;;;;;1.00;1.00;;;;;;;;5095370;27;45549;-68
2022/04/06 09:33:43;;;;;;;;;0.33;0.33;;;;;;;;5098468;27;45401;-69
2022/04/06 09:36:19;;;;;;;;;0.00;0.00;;;;;;;;5095785;27;45550;-68
2022/04/06 09:38:46;;;;;;;;;0.50;0.00;;;;;;;;5095257;27;45364;-68
2022/04/06 09:41:14;;;;;;;;;1.00;0.00;;;;;;;;5093582;27;45364;-68
2022/04/06 09:43:40;;;;;;;;;0.00;0.00;;;;;;;;5094340;27;45488;-68
2022/04/06 09:49:06;;;;;;;;;0.00;0.00;;;;;;;;5094497;27;45444;-68
2022/04/06 09:51:31;;;;;;;;;0.00;0.00;;;;;;;;5095982;27;45442;-68
2022/04/06 09:54:00;;;;;;;;;0.00;0.00;;;;;;;;5092669;27;45296;-68
2022/04/06 09:56:26;;;;;;;;;1.00;0.00;;;;;;;;5096271;27;45497;-68
2022/04/06 09:58:51;;;;;;;;;0.00;0.00;;;;;;;;5093805;27;45472;-68
2022/04/06 10:01:16;;;;;;;;;0.75;0.00;;;;;;;;5093940;27;45410;-68
2022/04/06 10:03:50;;;;;;;;;0.00;0.00;;;;;;;;5092942;27;45442;-68
2022/04/06 10:06:16;;;;;;;;;0.75;0.75;;;;;;;;5095877;27;45564;-68
2022/04/06 10:08:42;;;;;;;;;0.00;0.00;;;;;;;;5093787;27;45402;-68
2022/04/06 10:11:08;;;;;;;;;0.00;0.00;;;;;;;;5093457;27;45260;-69
2022/04/06 10:13:33;;;;;;;;;1.00;1.00;;;;;;;;5092878;27;45409;-69
2022/04/06 10:15:59;;;;;;;;;0.00;0.00;;;;;;;;5096483;27;45426;-68
2022/04/06 10:18:27;;;;;;;;;0.00;0.00;;;;;;;;5096959;27;46653;-69
2022/04/06 10:21:11;;;;;;;;;0.00;0.00;;;;;;;;5095255;27;45452;-68
2022/04/06 10:23:49;;;;;;;;;0.50;0.50;;;;;;;;5090404;27;45465;-69
2022/04/06 10:26:19;;;;;;;;;0.00;0.00;;;;;;;;5095222;27;45518;-69
2022/04/06 10:28:47;;;;;;;;;2.00;0.00;;;;;;;;5086673;27;45458;-68
2022/04/06 10:31:25;;;;;;;;;0.00;0.00;;;;;;;;5095209;27;45427;-68
2022/04/06 10:33:51;;;;;;;;;0.00;0.00;;;;;;;;5093370;27;45601;-68
2022/04/06 10:36:23;;;;;;;;;0.00;0.00;;;;;;;;5095289;27;45496;-68
2022/04/06 10:39:04;;;;;;;;;0.00;0.00;;;;;;;;5090791;27;45702;-69
2022/04/06 10:41:29;;;;;;;;;0.00;0.00;;;;;;;;5085615;27;45498;-69
2022/04/06 10:43:55;;;;;;;;;0.50;0.50;;;;;;;;5093461;27;45346;-69
2022/04/06 10:46:35;;;;;;;;;0.00;0.00;;;;;;;;5094865;27;45319;-68
2022/04/06 10:49:06;;;;;;;;;2.25;0.00;;;;;;;;5096117;27;45626;-68
2022/04/06 10:51:42;;;;;;;;;0.00;0.00;;;;;;;;5094814;27;45367;-69
2022/04/06 10:54:13;;;;;;;;;1.75;0.00;;;;;;;;5094762;27;45545;-69
2022/04/06 10:56:51;;;;;;;;;1.00;0.00;;;;;;;;5095923;27;45522;-69
2022/04/06 10:59:17;;;;;;;;;1.00;0.00;;;;;;;;5093132;27;46149;-69
2022/04/06 11:01:48;;;;;;;;;0.00;0.00;;;;;;;;5092315;27;45551;-68
2022/04/06 11:04:20;;;;;;;;;0.67;0.00;;;;;;;;5094525;27;45382;-68
2022/04/06 11:06:49;;;;;;;;;0.00;0.00;;;;;;;;5092728;27;45352;-68
2022/04/06 11:12:06;;;;;;;;;0.00;0.00;;;;;;;;5092353;27;45271;-68
2022/04/06 11:14:32;;;;;;;;;1.00;0.00;;;;;;;;5094675;27;45339;-68
2022/04/06 11:16:57;;;;;;;;;1.00;0.00;;;;;;;;5092710;27;45301;-68
2022/04/06 11:19:22;;;;;;;;;0.00;0.00;;;;;;;;5094869;27;45747;-68
2022/04/06 11:21:50;;;;;;;;;0.00;0.00;;;;;;;;5097117;27;45413;-68
2022/04/06 11:24:20;;;;;;;;;0.25;0.00;;;;;;;;5094322;27;45474;-68
2022/04/06 11:26:45;;;;;;;;;0.75;0.75;;;;;;;;5092657;27;45475;-68
2022/04/06 11:29:11;;;;;;;;;0.00;0.00;;;;;;;;5093951;27;45683;-68
2022/04/06 11:31:56;;;;;;;;;1.00;0.00;;;;;;;;5094214;27;45336;-69
2022/04/06 11:34:30;;;;;;;;;0.00;0.00;;;;;;;;5095024;27;45339;-68
2022/04/06 11:36:58;;;;;;;;;0.00;0.00;;;;;;;;5095102;27;45463;-68
2022/04/06 11:39:24;;;;;;;;;1.00;0.00;;;;;;;;5095349;27;46632;-68
2022/04/06 11:41:50;;;;;;;;;0.00;0.00;;;;;;;;5093748;27;45481;-68
2022/04/06 11:44:19;;;;;;;;;0.00;0.00;;;;;;;;5093495;27;45296;-69
2022/04/06 11:46:46;;;;;;;;;0.00;0.00;;;;;;;;5093754;27;45345;-68
2022/04/06 11:49:11;;;;;;;;;0.50;0.00;;;;;;;;5092960;27;46129;-68
2022/04/06 11:51:36;;;;;;;;;0.25;0.00;;;;;;;;5094110;27;45446;-68
2022/04/06 11:54:01;;;;;;;;;0.75;0.75;;;;;;;;5094306;27;45422;-68
2022/04/06 11:56:27;;;;;;;;;2.25;1.00;;;;;;;;5093870;27;45382;-68
2022/04/06 11:58:55;;;;;;;;;0.00;0.00;;;;;;;;5094164;27;46033;-68
2022/04/06 12:01:28;;;;;;;;;0.00;0.00;;;;;;;;5077859;27;45375;-69
2022/04/06 12:03:53;;;;;;;;;0.00;0.00;;;;;;;;5095152;27;45393;-68
2022/04/06 12:06:18;;;;;;;;;0.00;0.00;;;;;;;;5074661;27;45592;-69
2022/04/06 12:08:45;;;;;;;;;1.50;0.00;;;;;;;;5091289;27;46612;-68
2022/04/06 12:11:10;;;;;;;;;0.00;0.00;;;;;;;;5093495;27;45297;-68
2022/04/06 12:13:40;;;;;;;;;0.00;0.00;;;;;;;;5093702;27;47058;-68
2022/04/06 12:16:06;;;;;;;;;0.00;0.00;;;;;;;;5094102;27;45447;-68
2022/04/06 12:18:31;;;;;;;;;1.00;1.00;;;;;;;;5095823;27;45368;-68
2022/04/06 12:20:57;;;;;;;;;0.00;0.00;;;;;;;;5093561;27;45328;-68
2022/04/06 12:23:24;;;;;;;;;1.25;0.00;;;;;;;;5090791;27;45313;-68
2022/04/06 12:25:50;;;;;;;;;0.00;0.00;;;;;;;;5091308;27;45918;-68
2022/04/06 12:28:18;;;;;;;;;0.75;0.00;;;;;;;;5093244;27;46270;-68
2022/04/06 12:30:50;;;;;;;;;1.25;0.00;;;;;;;;5095381;27;45539;-68
2022/04/06 12:33:30;;;;;;;;;1.50;0.00;;;;;;;;5094451;27;45508;-68
2022/04/06 12:36:14;;;;;;;;;0.00;0.00;;;;;;;;5076554;27;45595;-68
2022/04/06 12:38:41;;;;;;;;;1.00;0.00;;;;;;;;5092187;27;46420;-68
2022/04/06 12:41:12;;;;;;;;;0.00;0.00;;;;;;;;5093199;27;45499;-68
2022/04/06 12:43:44;;;;;;;;;0.00;0.00;;;;;;;;5093472;27;45295;-68
2022/04/06 12:46:10;;;;;;;;;0.75;0.75;;;;;;;;5093517;27;45557;-68
2022/04/06 12:48:35;;;;;;;;;1.00;1.00;;;;;;;;5095153;27;45693;-68
2022/04/06 12:51:16;;;;;;;;;0.00;0.00;;;;;;;;5090413;27;45524;-68
2022/04/06 12:53:51;;;;;;;;;0.00;0.00;;;;;;;;5090733;27;45395;-69
2022/04/06 12:56:22;;;;;;;;;0.00;0.00;;;;;;;;5092088;27;45365;-68
2022/04/06 12:59:04;;;;;;;;;0.00;0.00;;;;;;;;5093199;27;46440;-68
2022/04/06 13:01:30;;;;;;;;;0.00;0.00;;;;;;;;5077275;27;45497;-67
2022/04/06 13:03:56;;;;;;;;;0.00;0.00;;;;;;;;5096962;27;45311;-68
2022/04/06 13:06:21;;;;;;;;;0.00;0.00;;;;;;;;5097557;27;45600;-68
2022/04/06 13:08:46;;;;;;;;;0.00;0.00;;;;;;;;5096042;27;46071;-68
2022/04/06 13:11:12;;;;;;;;;0.00;0.00;;;;;;;;5096380;27;45387;-68
2022/04/06 13:13:37;;;;;;;;;0.00;0.00;;;;;;;;5096329;27;45314;-68
2022/04/06 13:16:02;;;;;;;;;0.00;0.00;;;;;;;;5097492;27;45192;-68
2022/04/06 13:18:27;;;;;;;;;1.00;1.00;;;;;;;;5097116;27;45582;-69
2022/04/06 13:20:52;;;;;;;;;0.00;0.00;;;;;;;;5094060;27;45438;-68
2022/04/06 13:23:18;;;;;;;;;0.00;0.00;;;;;;;;5089033;27;45449;-68
2022/04/06 13:25:43;;;;;;;;;0.00;0.00;;;;;;;;5094301;27;45441;-66
2022/04/06 13:28:08;;;;;;;;;0.00;0.00;;;;;;;;5095775;27;47183;-68
2022/04/06 13:30:33;;;;;;;;;1.00;0.00;;;;;;;;5096720;27;45362;-69
2022/04/06 13:32:59;;;;;;;;;0.00;0.00;;;;;;;;5094183;27;45496;-68
2022/04/06 13:35:24;;;;;;;;;1.00;0.00;;;;;;;;5095891;27;45431;-69
2022/04/06 13:37:49;;;;;;;;;0.50;0.50;;;;;;;;5095735;27;46534;-68
2022/04/06 13:40:15;;;;;;;;;0.00;0.00;;;;;;;;5095661;27;45426;-69
2022/04/06 13:42:40;;;;;;;;;0.00;0.00;;;;;;;;5098120;27;45249;-68
2022/04/06 13:45:06;;;;;;;;;0.00;0.00;;;;;;;;5094247;27;48148;-68
2022/04/06 13:47:32;;;;;;;;;0.00;0.00;;;;;;;;5095289;27;45544;-68
2022/04/06 13:49:57;;;;;;;;;0.00;0.00;;;;;;;;5094042;27;45362;-69
2022/04/06 13:52:22;;;;;;;;;0.00;0.00;;;;;;;;5095228;27;45398;-68
2022/04/06 13:54:48;;;;;;;;;0.00;0.00;;;;;;;;5098362;27;45403;-69
2022/04/06 13:57:13;;;;;;;;;0.00;0.00;;;;;;;;5095969;27;47015;-69
2022/04/06 13:59:38;;;;;;;;;2.00;0.00;;;;;;;;5095197;27;45509;-68
2022/04/06 14:02:04;;;;;;;;;0.00;0.00;;;;;;;;5096184;27;45502;-69
2022/04/06 14:04:29;;;;;;;;;0.00;0.00;;;;;;;;5095846;27;45351;-68
2022/04/06 14:06:54;;;;;;;;;0.00;0.00;;;;;;;;5084763;27;45662;-69
2022/04/06 14:09:22;;;;;;;;;0.00;0.00;;;;;;;;5094666;27;45339;-69
2022/04/06 14:11:49;;;;;;;;;0.00;0.00;;;;;;;;5093794;27;45578;-68
2022/04/06 14:14:14;;;;;;;;;0.00;0.00;;;;;;;;5095062;27;45608;-68
2022/04/06 14:16:40;;;;;;;;;0.00;0.00;;;;;;;;5094076;27;45552;-68
2022/04/06 14:19:06;;;;;;;;;0.00;0.00;;;;;;;;5095736;27;45381;-68
2022/04/06 14:21:34;;;;;;;;;3.00;0.00;;;;;;;;5095080;27;45365;-68
2022/04/06 14:24:03;;;;;;;;;0.75;0.50;;;;;;;;5094536;27;45488;-68
2022/04/06 14:26:28;;;;;;;;;0.00;0.00;;;;;;;;5093024;27;45445;-69
2022/04/06 14:28:55;;;;;;;;;0.00;0.00;;;;;;;;5094243;27;45290;-68
2022/04/06 14:31:20;;;;;;;;;1.00;1.00;;;;;;;;5089932;27;45485;-68
2022/04/06 14:33:45;;;;;;;;;0.00;0.00;;;;;;;;5097523;27;45289;-68
2022/04/06 14:36:11;;;;;;;;;0.00;0.00;;;;;;;;5094592;27;45608;-68
2022/04/06 14:38:36;;;;;;;;;0.00;0.00;;;;;;;;5096820;27;45532;-69
2022/04/06 14:41:04;;;;;;;;;0.00;0.00;;;;;;;;5096209;27;45444;-68
2022/04/06 14:43:30;;;;;;;;;0.00;0.00;;;;;;;;5095456;27;45382;-69
2022/04/06 14:45:55;;;;;;;;;1.50;0.50;;;;;;;;5096469;27;46466;-69